Galatia, Illinois
Current Conditions -  °F | °C
As of 11:55 AM on Tuesday 21 Oct 2014 (Local Time) from KHSB Reporting Station
Clear Clear  
Wind Chill: 63°   Ceiling: Unl
Heat Index: 63°   Visibility: 10mi
Dew Point: 46°   Wind: 3mph
Humidity: 53%   Direction: 360°N
Pressure: 30.12"   Gusts: NA
Location:  37.84°N, 88.61°W
Report Text: KHSB 211655Z AUTO 36003KT 10SM CLR 17/08 A3012 RMK AO2 T01730076
Loading
Personal Weather Stations






























Interactive Weather Map
Tropical Storm Tracking
New forecast layout! Learn more

10-Day Weather Forecast

Advertisements
Track Severe Weather on mobile